sensor_id;sensor_type;location;lat;lon;timestamp;P1;durP1;ratioP1;P2;durP2;ratioP2
74269;SDS011;62754;48.252;11.654;2023-04-06T00:00:35;12.45;;;7.25;;
74269;SDS011;62754;48.252;11.654;2023-04-06T00:03:03;11.30;;;6.97;;
74269;SDS011;62754;48.252;11.654;2023-04-06T00:05:31;11.02;;;7.32;;
74269;SDS011;62754;48.252;11.654;2023-04-06T00:07:58;10.23;;;7.38;;
74269;SDS011;62754;48.252;11.654;2023-04-06T00:10:24;10.88;;;7.05;;
74269;SDS011;62754;48.252;11.654;2023-04-06T00:12:58;9.35;;;6.35;;
74269;SDS011;62754;48.252;11.654;2023-04-06T00:15:28;11.82;;;7.28;;
74269;SDS011;62754;48.252;11.654;2023-04-06T00:17:55;14.45;;;8.27;;
74269;SDS011;62754;48.252;11.654;2023-04-06T00:20:20;18.13;;;7.90;;
74269;SDS011;62754;48.252;11.654;2023-04-06T00:22:51;11.05;;;6.95;;
74269;SDS011;62754;48.252;11.654;2023-04-06T00:25:19;15.43;;;6.63;;
74269;SDS011;62754;48.252;11.654;2023-04-06T00:27:45;11.68;;;7.53;;
74269;SDS011;62754;48.252;11.654;2023-04-06T00:30:11;11.27;;;6.63;;
74269;SDS011;62754;48.252;11.654;2023-04-06T00:32:37;11.18;;;6.65;;
74269;SDS011;62754;48.252;11.654;2023-04-06T00:35:03;13.77;;;7.70;;
74269;SDS011;62754;48.252;11.654;2023-04-06T00:37:34;11.38;;;8.02;;
74269;SDS011;62754;48.252;11.654;2023-04-06T00:40:02;13.82;;;8.77;;
74269;SDS011;62754;48.252;11.654;2023-04-06T00:42:28;11.02;;;7.55;;
74269;SDS011;62754;48.252;11.654;2023-04-06T00:44:55;10.70;;;7.07;;
74269;SDS011;62754;48.252;11.654;2023-04-06T00:47:22;10.25;;;6.70;;
74269;SDS011;62754;48.252;11.654;2023-04-06T00:49:51;10.68;;;7.03;;
74269;SDS011;62754;48.252;11.654;2023-04-06T00:52:18;9.52;;;7.38;;
74269;SDS011;62754;48.252;11.654;2023-04-06T00:54:46;12.90;;;8.00;;
74269;SDS011;62754;48.252;11.654;2023-04-06T00:57:15;11.23;;;7.25;;
74269;SDS011;62754;48.252;11.654;2023-04-06T00:59:40;15.75;;;7.55;;
74269;SDS011;62754;48.252;11.654;2023-04-06T01:02:07;9.40;;;7.10;;
74269;SDS011;62754;48.252;11.654;2023-04-06T01:04:34;12.18;;;7.47;;
74269;SDS011;62754;48.252;11.654;2023-04-06T01:07:05;12.07;;;6.97;;
74269;SDS011;62754;48.252;11.654;2023-04-06T01:09:31;13.82;;;7.80;;
74269;SDS011;62754;48.252;11.654;2023-04-06T01:11:59;11.57;;;6.88;;
74269;SDS011;62754;48.252;11.654;2023-04-06T01:14:27;10.35;;;7.22;;
74269;SDS011;62754;48.252;11.654;2023-04-06T01:16:57;11.80;;;6.97;;
74269;SDS011;62754;48.252;11.654;2023-04-06T01:19:25;13.02;;;6.70;;
74269;SDS011;62754;48.252;11.654;2023-04-06T01:21:51;10.73;;;6.95;;
74269;SDS011;62754;48.252;11.654;2023-04-06T01:24:17;12.20;;;7.63;;
74269;SDS011;62754;48.252;11.654;2023-04-06T01:26:46;11.93;;;7.43;;
74269;SDS011;62754;48.252;11.654;2023-04-06T01:29:12;11.32;;;7.10;;
74269;SDS011;62754;48.252;11.654;2023-04-06T01:31:41;11.10;;;6.78;;
74269;SDS011;62754;48.252;11.654;2023-04-06T01:34:06;11.55;;;7.32;;
74269;SDS011;62754;48.252;11.654;2023-04-06T01:36:32;11.55;;;7.20;;
74269;SDS011;62754;48.252;11.654;2023-04-06T01:39:00;10.55;;;6.70;;
74269;SDS011;62754;48.252;11.654;2023-04-06T01:41:26;11.20;;;7.00;;
74269;SDS011;62754;48.252;11.654;2023-04-06T01:43:57;11.07;;;7.22;;
74269;SDS011;62754;48.252;11.654;2023-04-06T01:46:25;13.35;;;6.82;;
74269;SDS011;62754;48.252;11.654;2023-04-06T01:48:51;13.10;;;7.38;;
74269;SDS011;62754;48.252;11.654;2023-04-06T01:51:17;11.65;;;7.38;;
74269;SDS011;62754;48.252;11.654;2023-04-06T01:53:45;9.80;;;7.03;;
74269;SDS011;62754;48.252;11.654;2023-04-06T01:56:11;15.13;;;7.40;;
74269;SDS011;62754;48.252;11.654;2023-04-06T01:58:36;11.73;;;7.90;;
74269;SDS011;62754;48.252;11.654;2023-04-06T02:01:02;11.43;;;6.97;;
74269;SDS011;62754;48.252;11.654;2023-04-06T02:03:28;12.45;;;7.40;;
74269;SDS011;62754;48.252;11.654;2023-04-06T02:05:57;9.65;;;6.78;;
74269;SDS011;62754;48.252;11.654;2023-04-06T02:08:26;12.77;;;7.50;;
74269;SDS011;62754;48.252;11.654;2023-04-06T02:10:53;11.13;;;7.65;;
74269;SDS011;62754;48.252;11.654;2023-04-06T02:13:22;16.42;;;7.97;;
74269;SDS011;62754;48.252;11.654;2023-04-06T02:15:47;12.40;;;7.90;;
74269;SDS011;62754;48.252;11.654;2023-04-06T02:18:18;12.88;;;7.25;;
74269;SDS011;62754;48.252;11.654;2023-04-06T02:20:44;11.63;;;7.35;;
74269;SDS011;62754;48.252;11.654;2023-04-06T02:23:12;11.73;;;7.00;;
74269;SDS011;62754;48.252;11.654;2023-04-06T02:25:38;11.15;;;6.68;;
74269;SDS011;62754;48.252;11.654;2023-04-06T02:28:08;10.48;;;7.07;;
74269;SDS011;62754;48.252;11.654;2023-04-06T02:30:34;12.30;;;7.78;;
74269;SDS011;62754;48.252;11.654;2023-04-06T02:33:03;10.60;;;7.47;;
74269;SDS011;62754;48.252;11.654;2023-04-06T02:35:29;12.52;;;7.03;;
74269;SDS011;62754;48.252;11.654;2023-04-06T02:37:55;14.80;;;7.50;;
74269;SDS011;62754;48.252;11.654;2023-04-06T02:40:21;12.27;;;7.65;;
74269;SDS011;62754;48.252;11.654;2023-04-06T02:42:47;11.65;;;6.65;;
74269;SDS011;62754;48.252;11.654;2023-04-06T02:45:17;12.65;;;7.70;;
74269;SDS011;62754;48.252;11.654;2023-04-06T02:47:45;11.93;;;7.78;;
74269;SDS011;62754;48.252;11.654;2023-04-06T02:50:13;12.52;;;7.72;;
74269;SDS011;62754;48.252;11.654;2023-04-06T02:52:42;12.02;;;8.02;;
74269;SDS011;62754;48.252;11.654;2023-04-06T02:55:10;11.45;;;7.45;;
74269;SDS011;62754;48.252;11.654;2023-04-06T02:57:35;9.68;;;6.93;;
74269;SDS011;62754;48.252;11.654;2023-04-06T03:00:01;14.13;;;8.02;;
74269;SDS011;62754;48.252;11.654;2023-04-06T03:02:29;12.43;;;7.45;;
74269;SDS011;62754;48.252;11.654;2023-04-06T03:04:58;10.25;;;7.50;;
74269;SDS011;62754;48.252;11.654;2023-04-06T03:07:23;12.88;;;7.15;;
74269;SDS011;62754;48.252;11.654;2023-04-06T03:09:52;8.82;;;6.70;;
74269;SDS011;62754;48.252;11.654;2023-04-06T03:12:20;11.52;;;7.10;;
74269;SDS011;62754;48.252;11.654;2023-04-06T03:14:46;12.18;;;7.30;;
74269;SDS011;62754;48.252;11.654;2023-04-06T03:17:12;11.32;;;7.45;;
74269;SDS011;62754;48.252;11.654;2023-04-06T03:19:37;12.50;;;7.38;;
74269;SDS011;62754;48.252;11.654;2023-04-06T03:22:03;13.02;;;7.38;;
74269;SDS011;62754;48.252;11.654;2023-04-06T03:24:29;12.90;;;7.50;;
74269;SDS011;62754;48.252;11.654;2023-04-06T03:26:55;12.00;;;7.10;;
74269;SDS011;62754;48.252;11.654;2023-04-06T03:29:20;10.85;;;7.07;;
74269;SDS011;62754;48.252;11.654;2023-04-06T03:31:51;15.38;;;8.27;;
74269;SDS011;62754;48.252;11.654;2023-04-06T03:34:16;11.13;;;7.15;;
74269;SDS011;62754;48.252;11.654;2023-04-06T03:36:42;9.63;;;7.20;;
74269;SDS011;62754;48.252;11.654;2023-04-06T03:39:08;12.20;;;7.28;;
74269;SDS011;62754;48.252;11.654;2023-04-06T03:41:34;9.68;;;7.13;;
74269;SDS011;62754;48.252;11.654;2023-04-06T03:43:59;12.25;;;7.93;;
74269;SDS011;62754;48.252;11.654;2023-04-06T03:46:30;14.98;;;7.75;;
74269;SDS011;62754;48.252;11.654;2023-04-06T03:48:58;13.05;;;8.68;;
74269;SDS011;62754;48.252;11.654;2023-04-06T03:51:24;12.90;;;8.18;;
74269;SDS011;62754;48.252;11.654;2023-04-06T03:53:52;14.88;;;8.55;;
74269;SDS011;62754;48.252;11.654;2023-04-06T03:56:18;13.77;;;8.25;;
74269;SDS011;62754;48.252;11.654;2023-04-06T03:58:46;14.77;;;8.50;;
74269;SDS011;62754;48.252;11.654;2023-04-06T04:01:16;16.80;;;9.35;;
74269;SDS011;62754;48.252;11.654;2023-04-06T04:03:44;12.32;;;8.13;;
74269;SDS011;62754;48.252;11.654;2023-04-06T04:06:12;12.95;;;8.38;;
74269;SDS011;62754;48.252;11.654;2023-04-06T04:08:38;12.88;;;8.55;;
74269;SDS011;62754;48.252;11.654;2023-04-06T04:11:09;14.60;;;8.40;;
74269;SDS011;62754;48.252;11.654;2023-04-06T04:13:35;11.90;;;7.93;;
74269;SDS011;62754;48.252;11.654;2023-04-06T04:16:00;12.88;;;7.50;;
74269;SDS011;62754;48.252;11.654;2023-04-06T04:18:26;14.88;;;7.55;;
74269;SDS011;62754;48.252;11.654;2023-04-06T04:20:54;15.25;;;7.63;;
74269;SDS011;62754;48.252;11.654;2023-04-06T04:23:22;12.75;;;7.18;;
74269;SDS011;62754;48.252;11.654;2023-04-06T04:25:48;11.43;;;7.53;;
74269;SDS011;62754;48.252;11.654;2023-04-06T04:28:14;10.50;;;7.07;;
74269;SDS011;62754;48.252;11.654;2023-04-06T04:30:42;10.80;;;6.90;;
74269;SDS011;62754;48.252;11.654;2023-04-06T04:33:07;11.43;;;7.00;;
74269;SDS011;62754;48.252;11.654;2023-04-06T04:35:36;13.80;;;7.30;;
74269;SDS011;62754;48.252;11.654;2023-04-06T04:38:01;11.60;;;6.85;;
74269;SDS011;62754;48.252;11.654;2023-04-06T04:40:27;11.15;;;6.88;;
74269;SDS011;62754;48.252;11.654;2023-04-06T04:42:55;9.32;;;6.28;;
74269;SDS011;62754;48.252;11.654;2023-04-06T04:45:23;11.30;;;7.82;;
74269;SDS011;62754;48.252;11.654;2023-04-06T04:47:49;10.57;;;6.60;;
74269;SDS011;62754;48.252;11.654;2023-04-06T04:50:15;11.43;;;7.32;;
74269;SDS011;62754;48.252;11.654;2023-04-06T04:52:41;12.23;;;6.57;;
74269;SDS011;62754;48.252;11.654;2023-04-06T04:55:06;11.02;;;6.95;;
74269;SDS011;62754;48.252;11.654;2023-04-06T04:57:40;11.70;;;6.38;;
74269;SDS011;62754;48.252;11.654;2023-04-06T05:00:06;10.60;;;6.32;;
74269;SDS011;62754;48.252;11.654;2023-04-06T05:02:32;11.30;;;6.55;;
74269;SDS011;62754;48.252;11.654;2023-04-06T05:04:58;12.80;;;7.00;;
74269;SDS011;62754;48.252;11.654;2023-04-06T05:07:25;10.05;;;6.07;;
74269;SDS011;62754;48.252;11.654;2023-04-06T05:09:51;10.43;;;6.50;;
74269;SDS011;62754;48.252;11.654;2023-04-06T05:12:18;11.40;;;8.65;;
74269;SDS011;62754;48.252;11.654;2023-04-06T05:14:44;11.25;;;6.88;;
74269;SDS011;62754;48.252;11.654;2023-04-06T05:17:10;10.75;;;6.47;;
74269;SDS011;62754;48.252;11.654;2023-04-06T05:19:38;9.95;;;6.57;;
74269;SDS011;62754;48.252;11.654;2023-04-06T05:22:06;10.27;;;6.35;;
74269;SDS011;62754;48.252;11.654;2023-04-06T05:24:32;9.15;;;6.32;;
74269;SDS011;62754;48.252;11.654;2023-04-06T05:26:57;9.55;;;6.78;;
74269;SDS011;62754;48.252;11.654;2023-04-06T05:29:25;10.55;;;6.20;;
74269;SDS011;62754;48.252;11.654;2023-04-06T05:31:51;9.68;;;6.03;;
74269;SDS011;62754;48.252;11.654;2023-04-06T05:34:21;10.40;;;6.20;;
74269;SDS011;62754;48.252;11.654;2023-04-06T05:36:47;10.60;;;6.03;;
74269;SDS011;62754;48.252;11.654;2023-04-06T05:39:13;9.55;;;6.15;;
74269;SDS011;62754;48.252;11.654;2023-04-06T05:41:41;10.43;;;6.95;;
74269;SDS011;62754;48.252;11.654;2023-04-06T05:44:09;13.20;;;7.03;;
74269;SDS011;62754;48.252;11.654;2023-04-06T05:46:35;11.13;;;7.25;;
74269;SDS011;62754;48.252;11.654;2023-04-06T05:49:00;11.88;;;6.75;;
74269;SDS011;62754;48.252;11.654;2023-04-06T05:51:26;10.15;;;6.88;;
74269;SDS011;62754;48.252;11.654;2023-04-06T05:53:54;10.98;;;6.35;;
74269;SDS011;62754;48.252;11.654;2023-04-06T05:56:24;10.18;;;6.93;;
74269;SDS011;62754;48.252;11.654;2023-04-06T05:58:55;10.10;;;6.85;;
74269;SDS011;62754;48.252;11.654;2023-04-06T06:01:21;8.70;;;6.18;;
74269;SDS011;62754;48.252;11.654;2023-04-06T06:03:49;11.85;;;7.28;;
74269;SDS011;62754;48.252;11.654;2023-04-06T06:06:17;10.70;;;7.90;;
74269;SDS011;62754;48.252;11.654;2023-04-06T06:08:45;8.93;;;7.32;;
74269;SDS011;62754;48.252;11.654;2023-04-06T06:11:11;10.25;;;6.63;;
74269;SDS011;62754;48.252;11.654;2023-04-06T06:13:39;10.85;;;6.90;;
74269;SDS011;62754;48.252;11.654;2023-04-06T06:16:08;11.93;;;6.20;;
74269;SDS011;62754;48.252;11.654;2023-04-06T06:18:33;8.98;;;6.00;;
74269;SDS011;62754;48.252;11.654;2023-04-06T06:21:02;9.30;;;5.95;;
74269;SDS011;62754;48.252;11.654;2023-04-06T06:23:28;8.27;;;6.75;;
74269;SDS011;62754;48.252;11.654;2023-04-06T06:25:56;10.70;;;6.57;;
74269;SDS011;62754;48.252;11.654;2023-04-06T06:28:22;9.35;;;5.65;;
74269;SDS011;62754;48.252;11.654;2023-04-06T06:30:50;9.95;;;6.45;;
74269;SDS011;62754;48.252;11.654;2023-04-06T06:33:18;10.35;;;6.72;;
74269;SDS011;62754;48.252;11.654;2023-04-06T06:35:46;10.90;;;8.48;;
74269;SDS011;62754;48.252;11.654;2023-04-06T06:38:11;12.50;;;7.70;;
74269;SDS011;62754;48.252;11.654;2023-04-06T06:40:37;9.75;;;7.38;;
74269;SDS011;62754;48.252;11.654;2023-04-06T06:43:05;10.40;;;7.28;;
74269;SDS011;62754;48.252;11.654;2023-04-06T06:45:30;10.00;;;6.47;;
74269;SDS011;62754;48.252;11.654;2023-04-06T06:47:58;11.43;;;6.40;;
74269;SDS011;62754;48.252;11.654;2023-04-06T06:50:24;11.25;;;6.68;;
74269;SDS011;62754;48.252;11.654;2023-04-06T06:52:50;9.07;;;6.18;;
74269;SDS011;62754;48.252;11.654;2023-04-06T06:55:20;10.20;;;6.15;;
74269;SDS011;62754;48.252;11.654;2023-04-06T06:57:46;9.15;;;5.88;;
74269;SDS011;62754;48.252;11.654;2023-04-06T07:00:14;11.27;;;6.57;;
74269;SDS011;62754;48.252;11.654;2023-04-06T07:02:40;8.13;;;5.88;;
74269;SDS011;62754;48.252;11.654;2023-04-06T07:05:08;8.27;;;5.70;;
74269;SDS011;62754;48.252;11.654;2023-04-06T07:07:36;10.00;;;6.07;;
74269;SDS011;62754;48.252;11.654;2023-04-06T07:10:05;11.05;;;6.72;;
74269;SDS011;62754;48.252;11.654;2023-04-06T07:12:33;9.27;;;6.35;;
74269;SDS011;62754;48.252;11.654;2023-04-06T07:14:59;7.95;;;5.93;;
74269;SDS011;62754;48.252;11.654;2023-04-06T07:17:25;11.82;;;6.03;;
74269;SDS011;62754;48.252;11.654;2023-04-06T07:19:50;11.40;;;6.97;;
74269;SDS011;62754;48.252;11.654;2023-04-06T07:22:16;10.95;;;6.43;;
74269;SDS011;62754;48.252;11.654;2023-04-06T07:24:44;8.80;;;5.80;;
74269;SDS011;62754;48.252;11.654;2023-04-06T07:27:13;8.65;;;5.85;;
74269;SDS011;62754;48.252;11.654;2023-04-06T07:29:41;7.72;;;5.32;;
74269;SDS011;62754;48.252;11.654;2023-04-06T07:32:10;13.70;;;5.65;;
74269;SDS011;62754;48.252;11.654;2023-04-06T07:34:36;8.93;;;5.85;;
74269;SDS011;62754;48.252;11.654;2023-04-06T07:37:01;8.73;;;6.20;;
74269;SDS011;62754;48.252;11.654;2023-04-06T07:39:27;8.98;;;5.85;;
74269;SDS011;62754;48.252;11.654;2023-04-06T07:41:56;7.90;;;6.05;;
74269;SDS011;62754;48.252;11.654;2023-04-06T07:44:24;9.23;;;6.40;;
74269;SDS011;62754;48.252;11.654;2023-04-06T07:46:52;10.65;;;6.00;;
74269;SDS011;62754;48.252;11.654;2023-04-06T07:49:18;9.13;;;6.28;;
74269;SDS011;62754;48.252;11.654;2023-04-06T07:51:43;11.40;;;5.80;;
74269;SDS011;62754;48.252;11.654;2023-04-06T07:54:09;9.75;;;5.68;;
74269;SDS011;62754;48.252;11.654;2023-04-06T07:56:37;8.25;;;5.88;;
74269;SDS011;62754;48.252;11.654;2023-04-06T07:59:03;11.43;;;6.40;;
74269;SDS011;62754;48.252;11.654;2023-04-06T08:01:29;8.75;;;5.78;;
74269;SDS011;62754;48.252;11.654;2023-04-06T08:03:55;8.63;;;6.60;;
74269;SDS011;62754;48.252;11.654;2023-04-06T08:06:23;7.53;;;5.88;;
74269;SDS011;62754;48.252;11.654;2023-04-06T08:08:53;8.75;;;6.32;;
74269;SDS011;62754;48.252;11.654;2023-04-06T08:11:24;8.88;;;5.88;;
74269;SDS011;62754;48.252;11.654;2023-04-06T08:13:52;9.35;;;5.65;;
74269;SDS011;62754;48.252;11.654;2023-04-06T08:16:20;7.47;;;5.95;;
74269;SDS011;62754;48.252;11.654;2023-04-06T08:18:46;8.35;;;5.35;;
74269;SDS011;62754;48.252;11.654;2023-04-06T08:21:11;13.73;;;5.28;;
74269;SDS011;62754;48.252;11.654;2023-04-06T08:23:40;9.95;;;5.70;;
74269;SDS011;62754;48.252;11.654;2023-04-06T08:26:08;7.10;;;5.25;;
74269;SDS011;62754;48.252;11.654;2023-04-06T08:28:33;8.43;;;5.82;;
74269;SDS011;62754;48.252;11.654;2023-04-06T08:31:02;9.25;;;5.18;;
74269;SDS011;62754;48.252;11.654;2023-04-06T08:33:31;11.57;;;5.90;;
74269;SDS011;62754;48.252;11.654;2023-04-06T08:35:58;9.55;;;5.45;;
74269;SDS011;62754;48.252;11.654;2023-04-06T08:38:23;7.20;;;5.22;;
74269;SDS011;62754;48.252;11.654;2023-04-06T08:40:49;7.82;;;5.30;;
74269;SDS011;62754;48.252;11.654;2023-04-06T08:43:15;6.90;;;4.93;;
74269;SDS011;62754;48.252;11.654;2023-04-06T08:45:47;6.97;;;5.07;;
74269;SDS011;62754;48.252;11.654;2023-04-06T08:48:13;8.63;;;5.30;;
74269;SDS011;62754;48.252;11.654;2023-04-06T08:50:45;8.23;;;5.10;;
74269;SDS011;62754;48.252;11.654;2023-04-06T08:53:16;7.57;;;5.10;;
74269;SDS011;62754;48.252;11.654;2023-04-06T08:55:45;6.35;;;5.13;;
74269;SDS011;62754;48.252;11.654;2023-04-06T08:58:11;7.75;;;4.60;;
74269;SDS011;62754;48.252;11.654;2023-04-06T09:00:40;6.90;;;4.97;;
74269;SDS011;62754;48.252;11.654;2023-04-06T09:03:08;7.25;;;5.20;;
74269;SDS011;62754;48.252;11.654;2023-04-06T09:05:37;6.78;;;4.95;;
74269;SDS011;62754;48.252;11.654;2023-04-06T09:08:04;6.93;;;5.30;;
74269;SDS011;62754;48.252;11.654;2023-04-06T09:10:32;9.27;;;4.97;;
74269;SDS011;62754;48.252;11.654;2023-04-06T09:13:07;7.70;;;4.75;;
74269;SDS011;62754;48.252;11.654;2023-04-06T09:15:34;6.90;;;4.65;;
74269;SDS011;62754;48.252;11.654;2023-04-06T09:18:02;6.50;;;5.05;;
74269;SDS011;62754;48.252;11.654;2023-04-06T09:20:28;9.07;;;4.93;;
74269;SDS011;62754;48.252;11.654;2023-04-06T09:22:56;7.22;;;4.50;;
74269;SDS011;62754;48.252;11.654;2023-04-06T09:25:24;7.28;;;4.90;;
74269;SDS011;62754;48.252;11.654;2023-04-06T09:28:00;8.77;;;5.43;;
74269;SDS011;62754;48.252;11.654;2023-04-06T09:30:27;7.53;;;5.00;;
74269;SDS011;62754;48.252;11.654;2023-04-06T09:32:54;8.07;;;5.18;;
74269;SDS011;62754;48.252;11.654;2023-04-06T09:35:21;6.18;;;4.70;;
74269;SDS011;62754;48.252;11.654;2023-04-06T09:40:16;7.63;;;5.25;;
74269;SDS011;62754;48.252;11.654;2023-04-06T09:42:44;7.97;;;5.50;;
74269;SDS011;62754;48.252;11.654;2023-04-06T09:45:11;6.65;;;5.43;;
74269;SDS011;62754;48.252;11.654;2023-04-06T09:47:37;6.65;;;5.18;;
74269;SDS011;62754;48.252;11.654;2023-04-06T09:50:09;8.20;;;5.63;;
74269;SDS011;62754;48.252;11.654;2023-04-06T09:52:46;8.02;;;5.47;;
74269;SDS011;62754;48.252;11.654;2023-04-06T09:55:16;8.93;;;5.32;;
74269;SDS011;62754;48.252;11.654;2023-04-06T09:57:58;6.38;;;5.25;;
74269;SDS011;62754;48.252;11.654;2023-04-06T10:00:31;8.75;;;5.47;;
74269;SDS011;62754;48.252;11.654;2023-04-06T10:05:41;16.60;;;6.43;;
74269;SDS011;62754;48.252;11.654;2023-04-06T10:08:20;8.52;;;5.90;;
74269;SDS011;62754;48.252;11.654;2023-04-06T10:11:02;7.80;;;5.40;;
74269;SDS011;62754;48.252;11.654;2023-04-06T10:13:30;7.60;;;6.10;;
74269;SDS011;62754;48.252;11.654;2023-04-06T10:15:56;8.55;;;5.93;;
74269;SDS011;62754;48.252;11.654;2023-04-06T10:18:24;6.60;;;5.43;;
74269;SDS011;62754;48.252;11.654;2023-04-06T10:20:55;8.90;;;5.80;;
74269;SDS011;62754;48.252;11.654;2023-04-06T10:23:45;8.23;;;6.50;;
74269;SDS011;62754;48.252;11.654;2023-04-06T10:28:46;7.63;;;5.90;;
74269;SDS011;62754;48.252;11.654;2023-04-06T10:31:13;9.32;;;6.20;;
74269;SDS011;62754;48.252;11.654;2023-04-06T10:33:53;8.05;;;6.30;;
74269;SDS011;62754;48.252;11.654;2023-04-06T10:36:27;9.05;;;6.28;;
74269;SDS011;62754;48.252;11.654;2023-04-06T10:38:58;12.60;;;6.63;;
74269;SDS011;62754;48.252;11.654;2023-04-06T10:41:45;10.20;;;6.35;;
74269;SDS011;62754;48.252;11.654;2023-04-06T10:44:32;9.00;;;6.05;;
74269;SDS011;62754;48.252;11.654;2023-04-06T10:47:07;10.38;;;6.85;;
74269;SDS011;62754;48.252;11.654;2023-04-06T10:49:45;7.55;;;5.93;;
74269;SDS011;62754;48.252;11.654;2023-04-06T10:52:11;9.95;;;6.40;;
74269;SDS011;62754;48.252;11.654;2023-04-06T10:54:42;7.30;;;5.85;;
74269;SDS011;62754;48.252;11.654;2023-04-06T11:00:04;9.63;;;6.13;;
74269;SDS011;62754;48.252;11.654;2023-04-06T11:02:30;9.00;;;6.75;;
74269;SDS011;62754;48.252;11.654;2023-04-06T11:04:57;12.73;;;7.30;;
74269;SDS011;62754;48.252;11.654;2023-04-06T11:07:25;9.93;;;6.70;;
74269;SDS011;62754;48.252;11.654;2023-04-06T11:09:54;9.05;;;6.72;;
74269;SDS011;62754;48.252;11.654;2023-04-06T11:12:21;9.10;;;6.53;;
74269;SDS011;62754;48.252;11.654;2023-04-06T11:14:59;9.65;;;7.28;;
74269;SDS011;62754;48.252;11.654;2023-04-06T11:17:28;8.00;;;6.53;;
74269;SDS011;62754;48.252;11.654;2023-04-06T11:19:59;7.95;;;6.47;;
74269;SDS011;62754;48.252;11.654;2023-04-06T11:22:28;9.82;;;6.53;;
74269;SDS011;62754;48.252;11.654;2023-04-06T11:25:05;8.70;;;6.93;;
74269;SDS011;62754;48.252;11.654;2023-04-06T11:27:31;9.52;;;6.78;;
74269;SDS011;62754;48.252;11.654;2023-04-06T11:29:59;8.88;;;7.32;;
74269;SDS011;62754;48.252;11.654;2023-04-06T11:32:28;8.93;;;6.70;;
74269;SDS011;62754;48.252;11.654;2023-04-06T11:34:54;11.75;;;6.93;;
74269;SDS011;62754;48.252;11.654;2023-04-06T11:37:20;8.93;;;7.38;;
74269;SDS011;62754;48.252;11.654;2023-04-06T11:39:49;9.63;;;7.10;;
74269;SDS011;62754;48.252;11.654;2023-04-06T11:42:21;9.88;;;7.50;;
74269;SDS011;62754;48.252;11.654;2023-04-06T11:44:49;9.73;;;6.85;;
74269;SDS011;62754;48.252;11.654;2023-04-06T11:47:18;8.23;;;6.70;;
74269;SDS011;62754;48.252;11.654;2023-04-06T11:49:44;9.68;;;7.22;;
74269;SDS011;62754;48.252;11.654;2023-04-06T11:52:14;11.20;;;7.43;;
74269;SDS011;62754;48.252;11.654;2023-04-06T11:54:49;8.80;;;7.35;;
74269;SDS011;62754;48.252;11.654;2023-04-06T11:57:18;10.55;;;7.32;;
74269;SDS011;62754;48.252;11.654;2023-04-06T11:59:49;8.15;;;7.00;;
74269;SDS011;62754;48.252;11.654;2023-04-06T12:02:15;9.10;;;7.63;;
74269;SDS011;62754;48.252;11.654;2023-04-06T12:04:43;8.45;;;7.55;;
74269;SDS011;62754;48.252;11.654;2023-04-06T12:07:09;9.52;;;7.25;;
74269;SDS011;62754;48.252;11.654;2023-04-06T12:09:37;7.97;;;7.18;;
74269;SDS011;62754;48.252;11.654;2023-04-06T12:12:03;10.23;;;7.82;;
74269;SDS011;62754;48.252;11.654;2023-04-06T12:14:29;10.23;;;7.38;;
74269;SDS011;62754;48.252;11.654;2023-04-06T12:16:57;9.70;;;7.18;;
74269;SDS011;62754;48.252;11.654;2023-04-06T12:21:49;11.13;;;7.53;;
74269;SDS011;62754;48.252;11.654;2023-04-06T12:24:15;8.05;;;7.05;;
74269;SDS011;62754;48.252;11.654;2023-04-06T12:26:46;12.77;;;7.55;;
74269;SDS011;62754;48.252;11.654;2023-04-06T12:29:12;12.32;;;8.35;;
74269;SDS011;62754;48.252;11.654;2023-04-06T12:31:37;9.98;;;7.43;;
74269;SDS011;62754;48.252;11.654;2023-04-06T12:34:06;9.88;;;6.82;;
74269;SDS011;62754;48.252;11.654;2023-04-06T12:38:58;9.65;;;6.57;;
74269;SDS011;62754;48.252;11.654;2023-04-06T12:41:26;8.60;;;6.60;;
74269;SDS011;62754;48.252;11.654;2023-04-06T12:43:55;9.38;;;6.80;;
74269;SDS011;62754;48.252;11.654;2023-04-06T12:46:21;7.57;;;6.03;;
74269;SDS011;62754;48.252;11.654;2023-04-06T12:48:50;7.35;;;5.93;;
74269;SDS011;62754;48.252;11.654;2023-04-06T12:51:16;7.40;;;5.70;;
74269;SDS011;62754;48.252;11.654;2023-04-06T12:56:14;6.03;;;5.30;;
74269;SDS011;62754;48.252;11.654;2023-04-06T12:58:41;7.55;;;5.78;;
74269;SDS011;62754;48.252;11.654;2023-04-06T13:01:07;6.72;;;5.10;;
74269;SDS011;62754;48.252;11.654;2023-04-06T13:03:35;6.47;;;5.82;;
74269;SDS011;62754;48.252;11.654;2023-04-06T13:06:04;7.75;;;6.00;;
74269;SDS011;62754;48.252;11.654;2023-04-06T13:08:32;6.97;;;5.55;;
74269;SDS011;62754;48.252;11.654;2023-04-06T13:11:00;7.72;;;5.78;;
74269;SDS011;62754;48.252;11.654;2023-04-06T13:13:27;9.23;;;6.53;;
74269;SDS011;62754;48.252;11.654;2023-04-06T13:15:59;7.45;;;6.20;;
74269;SDS011;62754;48.252;11.654;2023-04-06T13:18:26;7.47;;;6.00;;
74269;SDS011;62754;48.252;11.654;2023-04-06T13:20:55;7.25;;;5.85;;
74269;SDS011;62754;48.252;11.654;2023-04-06T13:23:21;8.02;;;5.93;;
74269;SDS011;62754;48.252;11.654;2023-04-06T13:25:47;10.02;;;6.35;;
74269;SDS011;62754;48.252;11.654;2023-04-06T13:28:21;7.38;;;5.70;;
74269;SDS011;62754;48.252;11.654;2023-04-06T13:30:48;7.13;;;5.72;;
74269;SDS011;62754;48.252;11.654;2023-04-06T13:33:14;6.88;;;5.05;;
74269;SDS011;62754;48.252;11.654;2023-04-06T13:35:45;6.78;;;4.88;;
74269;SDS011;62754;48.252;11.654;2023-04-06T13:38:11;6.82;;;4.45;;
74269;SDS011;62754;48.252;11.654;2023-04-06T13:43:05;5.60;;;4.80;;
74269;SDS011;62754;48.252;11.654;2023-04-06T13:45:32;6.82;;;5.00;;
74269;SDS011;62754;48.252;11.654;2023-04-06T13:48:00;5.40;;;4.30;;
74269;SDS011;62754;48.252;11.654;2023-04-06T13:50:26;6.35;;;4.38;;
74269;SDS011;62754;48.252;11.654;2023-04-06T13:52:52;7.15;;;4.80;;
74269;SDS011;62754;48.252;11.654;2023-04-06T13:55:20;6.72;;;4.80;;
74269;SDS011;62754;48.252;11.654;2023-04-06T13:57:49;10.85;;;4.82;;
74269;SDS011;62754;48.252;11.654;2023-04-06T14:00:15;6.13;;;4.70;;
74269;SDS011;62754;48.252;11.654;2023-04-06T14:02:41;5.40;;;4.70;;
74269;SDS011;62754;48.252;11.654;2023-04-06T14:05:12;5.65;;;4.85;;
74269;SDS011;62754;48.252;11.654;2023-04-06T14:07:39;7.13;;;5.55;;
74269;SDS011;62754;48.252;11.654;2023-04-06T14:10:08;6.55;;;5.15;;
74269;SDS011;62754;48.252;11.654;2023-04-06T14:12:37;7.30;;;5.60;;
74269;SDS011;62754;48.252;11.654;2023-04-06T14:15:08;7.40;;;5.95;;
74269;SDS011;62754;48.252;11.654;2023-04-06T14:17:35;7.63;;;5.80;;
74269;SDS011;62754;48.252;11.654;2023-04-06T14:20:03;6.40;;;5.28;;
74269;SDS011;62754;48.252;11.654;2023-04-06T14:22:30;5.60;;;4.95;;
74269;SDS011;62754;48.252;11.654;2023-04-06T14:25:05;7.18;;;4.85;;
74269;SDS011;62754;48.252;11.654;2023-04-06T14:27:34;7.95;;;5.55;;
74269;SDS011;62754;48.252;11.654;2023-04-06T14:30:00;6.20;;;5.60;;
74269;SDS011;62754;48.252;11.654;2023-04-06T14:32:36;5.97;;;5.22;;
74269;SDS011;62754;48.252;11.654;2023-04-06T14:35:02;7.57;;;5.65;;
74269;SDS011;62754;48.252;11.654;2023-04-06T14:39:56;7.53;;;5.55;;
74269;SDS011;62754;48.252;11.654;2023-04-06T14:44:47;7.35;;;5.20;;
74269;SDS011;62754;48.252;11.654;2023-04-06T14:47:15;6.45;;;5.05;;
74269;SDS011;62754;48.252;11.654;2023-04-06T14:49:41;7.18;;;5.40;;
74269;SDS011;62754;48.252;11.654;2023-04-06T14:54:32;7.20;;;5.18;;
74269;SDS011;62754;48.252;11.654;2023-04-06T14:57:00;5.57;;;4.88;;
74269;SDS011;62754;48.252;11.654;2023-04-06T14:59:26;5.72;;;4.68;;